createdAt,value
2022-07-28T00:00:10.555Z,95598.31
2022-07-28T00:05:14.058Z,95606.47
2022-07-28T00:10:18.394Z,95591.94
2022-07-28T00:15:21.567Z,95586.28
2022-07-28T00:20:25.363Z,95585.13
2022-07-28T00:25:29.322Z,95577.78
2022-07-28T00:30:32.977Z,95577.13
2022-07-28T00:35:36.581Z,95582.94
2022-07-28T00:40:57.900Z,95572.31
2022-07-28T00:46:01.207Z,95569.34
2022-07-28T00:51:05.744Z,95559.81
2022-07-28T00:56:10.677Z,95556.91
2022-07-28T01:01:18.141Z,95557.97
2022-07-28T01:06:21.439Z,95548.28
2022-07-28T01:11:25.440Z,95539.63
2022-07-28T01:16:30.679Z,95541.19
2022-07-28T01:21:34.351Z,95530.34
2022-07-28T01:26:45.044Z,95526.91
2022-07-28T01:31:48.024Z,95528.97
2022-07-28T01:36:53.182Z,95522.41
2022-07-28T01:41:58.701Z,95508.16
2022-07-28T01:47:02.009Z,95506.69
2022-07-28T01:52:05.383Z,95504.44
2022-07-28T01:57:08.236Z,95510.75
2022-07-28T02:02:12.654Z,95508.03
2022-07-28T02:07:16.623Z,95513.69
2022-07-28T02:12:20.336Z,95506.94
2022-07-28T02:17:24.154Z,95506.81
2022-07-28T02:22:28.026Z,95505.13
2022-07-28T02:27:31.830Z,95506.91
2022-07-28T02:32:35.139Z,95500.88
2022-07-28T02:37:40.835Z,95506.78
2022-07-28T02:42:44.141Z,95496.28
2022-07-28T02:47:47.956Z,95495.31
2022-07-28T02:52:52.481Z,95495.38
2022-07-28T02:57:57.207Z,95492.19
2022-07-28T03:26:01.244Z,95508.72
2022-07-28T03:31:04.917Z,95525.31
2022-07-28T03:36:08.220Z,95517.84
2022-07-28T03:41:11.501Z,95515.25
2022-07-28T03:46:14.949Z,95512.25
2022-07-28T03:51:18.367Z,95508.88
2022-07-28T03:56:21.796Z,95517.59
2022-07-28T04:01:25.373Z,95515.28
2022-07-28T04:06:29.074Z,95513.44
2022-07-28T04:11:32.380Z,95516.94
2022-07-28T04:16:36.159Z,95514.41
2022-07-28T04:21:39.500Z,95509.16
2022-07-28T04:26:44.186Z,95518.06
2022-07-28T04:31:51.096Z,95509.19
2022-07-28T04:36:56.531Z,95513.34
2022-07-28T04:42:00.331Z,95519.16
2022-07-28T04:47:06.489Z,95520.56
2022-07-28T04:52:10.247Z,95523.25
2022-07-28T04:57:14.472Z,95524.16
2022-07-28T05:02:18.003Z,95533.66
2022-07-28T05:07:21.637Z,95526.16
2022-07-28T05:12:27.040Z,95519.19
2022-07-28T05:17:31.036Z,95523.53
2022-07-28T05:22:34.554Z,95528.81
2022-07-28T05:27:38.426Z,95521.19
2022-07-28T05:32:42.153Z,95528.06
2022-07-28T05:37:46.068Z,95523.94
2022-07-28T05:42:49.527Z,95525.69
2022-07-28T05:47:53.083Z,95528.44
2022-07-28T05:52:56.906Z,95521.00
2022-07-28T05:58:00.289Z,95534.97
2022-07-28T06:03:04.965Z,95533.38
2022-07-28T06:08:10.783Z,95530.25
2022-07-28T06:13:14.606Z,95535.09
2022-07-28T06:18:18.167Z,95531.44
2022-07-28T06:23:23.974Z,95533.56
2022-07-28T06:28:27.626Z,95530.78
2022-07-28T06:33:30.887Z,95539.19
2022-07-28T06:38:33.889Z,95530.56
2022-07-28T06:43:39.320Z,95546.69
2022-07-28T06:48:44.712Z,95536.09
2022-07-28T06:53:49.517Z,95534.97
2022-07-28T06:58:52.452Z,95534.78
2022-07-28T07:03:55.831Z,95533.75
2022-07-28T07:08:59.418Z,95538.00
2022-07-28T07:14:02.764Z,95532.59
2022-07-28T07:19:07.095Z,95524.88
2022-07-28T07:24:12.326Z,95518.31
2022-07-28T07:29:15.647Z,95504.75
2022-07-28T07:34:19.678Z,95511.44
2022-07-28T07:39:23.232Z,95508.03
2022-07-28T07:44:26.614Z,95504.78
2022-07-28T07:49:45.572Z,95497.22
2022-07-28T07:54:50.209Z,95504.09
2022-07-28T07:59:53.513Z,95496.91
2022-07-28T08:04:56.481Z,95501.28
2022-07-28T08:09:59.707Z,95485.28
2022-07-28T08:15:02.498Z,95494.88
2022-07-28T08:20:05.337Z,95499.16
2022-07-28T08:25:08.333Z,95507.94
2022-07-28T08:30:11.885Z,95505.13
2022-07-28T08:35:32.256Z,95494.25
2022-07-28T08:40:37.470Z,95501.06
2022-07-28T08:45:40.695Z,95485.56
2022-07-28T08:50:45.705Z,95494.75
2022-07-28T08:55:48.877Z,95491.22
2022-07-28T09:00:52.249Z,95494.97
2022-07-28T09:05:57.621Z,95493.34
2022-07-28T09:11:02.330Z,95498.75
2022-07-28T09:16:06.082Z,95497.78
2022-07-28T09:21:09.939Z,95499.06
2022-07-28T09:26:13.723Z,95492.72
2022-07-28T09:31:17.509Z,95491.72
2022-07-28T09:36:21.653Z,95495.44
2022-07-28T09:41:25.020Z,95482.19
2022-07-28T09:46:29.953Z,95477.81
2022-07-28T09:51:33.952Z,95479.63
2022-07-28T09:56:38.519Z,95481.84
2022-07-28T10:01:41.666Z,95475.94
2022-07-28T10:06:46.107Z,95473.63
2022-07-28T10:11:49.672Z,95472.09
2022-07-28T10:16:54.001Z,95485.25
2022-07-28T10:21:58.060Z,95462.59
2022-07-28T10:27:01.431Z,95456.25
2022-07-28T10:32:06.124Z,95463.34
2022-07-28T10:37:09.906Z,95467.72
2022-07-28T10:42:14.334Z,95459.19
2022-07-28T10:47:18.468Z,95460.94
2022-07-28T10:52:47.424Z,95461.31
2022-07-28T10:57:47.243Z,95454.00
2022-07-28T11:03:13.277Z,95458.56
2022-07-28T11:08:17.436Z,95446.38
2022-07-28T11:13:20.762Z,95446.44
2022-07-28T11:18:24.053Z,95440.13
2022-07-28T11:23:30.361Z,95441.16
2022-07-28T11:28:33.851Z,95435.97
2022-07-28T11:33:36.646Z,95433.72
2022-07-28T11:38:50.893Z,95437.19
2022-07-28T11:43:54.243Z,95443.97
2022-07-28T11:48:57.477Z,95433.31
2022-07-28T11:54:00.338Z,95425.50
2022-07-28T11:59:03.729Z,95432.25
2022-07-28T12:04:07.089Z,95422.53
2022-07-28T12:09:13.581Z,95428.69
2022-07-28T12:14:17.902Z,95442.78
2022-07-28T12:19:21.012Z,95423.06
2022-07-28T12:24:24.073Z,95418.53
2022-07-28T12:29:32.194Z,95415.97
2022-07-28T12:34:40.793Z,95423.81
2022-07-28T12:39:46.778Z,95396.50
2022-07-28T12:44:51.374Z,95404.50
2022-07-28T12:49:59.046Z,95405.97
2022-07-28T12:55:04.511Z,95408.38
2022-07-28T13:00:07.762Z,95392.75
2022-07-28T13:05:11.539Z,95394.91
2022-07-28T13:10:18.062Z,95390.69
2022-07-28T13:15:22.485Z,95382.66
2022-07-28T13:20:25.895Z,95380.78
2022-07-28T13:25:29.437Z,95385.66
2022-07-28T13:30:32.248Z,95370.69
2022-07-28T13:35:35.092Z,95370.03
2022-07-28T13:40:38.297Z,95374.53
2022-07-28T13:45:41.144Z,95359.28
2022-07-28T13:50:46.007Z,95364.66
2022-07-28T13:55:52.307Z,95368.59
2022-07-28T14:00:55.234Z,95361.63
2022-07-28T14:05:58.100Z,95346.06
2022-07-28T14:11:02.418Z,95356.34
2022-07-28T14:16:09.808Z,95348.06
2022-07-28T14:21:18.057Z,95337.44
2022-07-28T14:26:35.407Z,95332.72
2022-07-28T14:31:39.405Z,95336.53
2022-07-28T14:36:42.593Z,95329.47
2022-07-28T14:41:50.570Z,95318.44
2022-07-28T14:46:54.555Z,95322.56
2022-07-28T14:51:59.754Z,95328.34
2022-07-28T14:57:03.049Z,95325.69
2022-07-28T15:02:07.372Z,95325.28
2022-07-28T15:07:10.987Z,95318.59
2022-07-28T15:12:15.416Z,95305.09
2022-07-28T15:17:20.113Z,95325.69
2022-07-28T15:22:26.234Z,95308.75
2022-07-28T15:27:33.334Z,95312.22
2022-07-28T15:32:52.356Z,95315.38
2022-07-28T15:38:00.088Z,95322.53
2022-07-28T15:43:03.278Z,95316.13
2022-07-28T15:48:07.555Z,95319.31
2022-07-28T15:53:10.884Z,95304.34
2022-07-28T15:58:14.484Z,95289.38
2022-07-28T16:03:18.517Z,95293.59
2022-07-28T16:08:23.214Z,95288.91
2022-07-28T16:13:33.333Z,95297.91
2022-07-28T16:18:40.489Z,95293.44
2022-07-28T16:23:44.137Z,95295.31
2022-07-28T16:28:47.777Z,95300.81
2022-07-28T16:33:50.997Z,95299.13
2022-07-28T16:38:54.307Z,95304.56
2022-07-28T16:43:57.467Z,95293.97
2022-07-28T16:49:00.738Z,95296.31
2022-07-28T16:54:04.413Z,95311.13
2022-07-28T16:59:07.766Z,95300.47
2022-07-28T17:04:11.435Z,95304.38
2022-07-28T17:09:14.916Z,95303.84
2022-07-28T17:14:19.067Z,95298.00
2022-07-28T17:19:22.254Z,95305.84
2022-07-28T17:24:25.177Z,95313.53
2022-07-28T17:29:27.982Z,95315.13
2022-07-28T17:34:31.863Z,95323.31
2022-07-28T17:39:36.021Z,95314.59
2022-07-28T17:44:40.005Z,95312.50
2022-07-28T17:49:45.663Z,95325.78
2022-07-28T17:55:06.564Z,95320.59
2022-07-28T18:00:09.870Z,95337.75
2022-07-28T18:05:14.070Z,95343.94
2022-07-28T18:10:17.800Z,95354.47
2022-07-28T18:15:30.803Z,95359.44
2022-07-28T18:20:36.635Z,95371.53
2022-07-28T18:25:43.483Z,95373.41
2022-07-28T18:30:48.924Z,95362.72
2022-07-28T18:35:52.807Z,95368.31
2022-07-28T18:40:56.564Z,95369.06
2022-07-28T18:46:00.843Z,95365.72
2022-07-28T18:51:04.568Z,95359.66
2022-07-28T18:56:08.820Z,95358.78
2022-07-28T19:01:13.348Z,95361.75
2022-07-28T19:06:17.764Z,95372.00
2022-07-28T19:11:21.606Z,95368.75
2022-07-28T19:16:25.294Z,95372.03
2022-07-28T19:21:29.106Z,95368.03
2022-07-28T19:26:32.757Z,95374.97
2022-07-28T19:31:36.849Z,95376.97
2022-07-28T19:36:42.047Z,95371.63
2022-07-28T19:41:48.213Z,95373.81
2022-07-28T19:46:53.168Z,95381.28
2022-07-28T19:51:56.907Z,95387.56
2022-07-28T19:57:01.329Z,95388.16
2022-07-28T20:02:15.296Z,95392.34
2022-07-28T20:07:19.604Z,95396.09
2022-07-28T20:12:24.399Z,95407.09
2022-07-28T20:17:37.943Z,95415.38
2022-07-28T20:22:42.944Z,95418.94
2022-07-28T20:27:46.552Z,95431.84
2022-07-28T20:32:50.241Z,95432.38
2022-07-28T20:37:53.580Z,95434.22
2022-07-28T20:42:56.860Z,95421.00
2022-07-28T20:48:00.319Z,95428.94
2022-07-28T20:53:10.280Z,95430.50
2022-07-28T20:58:14.555Z,95439.94
2022-07-28T21:03:18.204Z,95440.44
2022-07-28T21:08:21.851Z,95452.16
2022-07-28T21:13:24.717Z,95470.91
2022-07-28T21:18:27.720Z,95475.59
2022-07-28T21:23:31.714Z,95498.19
2022-07-28T21:28:52.737Z,95515.25
2022-07-28T21:33:55.885Z,95528.19
2022-07-28T21:38:59.182Z,95524.19
2022-07-28T21:44:04.223Z,95531.44
2022-07-28T21:49:07.214Z,95544.06
2022-07-28T21:54:10.140Z,95546.56
2022-07-28T21:59:12.994Z,95548.66
2022-07-28T22:04:16.306Z,95560.31
2022-07-28T22:09:19.826Z,95579.94
2022-07-28T22:14:25.990Z,95586.72
2022-07-28T22:19:29.417Z,95588.81
2022-07-28T22:24:34.190Z,95609.69
2022-07-28T22:29:37.332Z,95603.78
2022-07-28T22:34:40.515Z,95623.59
2022-07-28T22:39:43.747Z,95617.94
2022-07-28T22:44:49.531Z,95621.16
2022-07-28T22:49:54.340Z,95614.91
2022-07-28T22:54:57.501Z,95611.13
2022-07-28T23:00:00.680Z,95599.09
2022-07-28T23:05:05.137Z,95585.41
2022-07-28T23:10:08.833Z,95577.44
2022-07-28T23:15:13.060Z,95575.63
2022-07-28T23:20:16.442Z,95578.34
2022-07-28T23:25:20.892Z,95574.56
2022-07-28T23:30:24.331Z,95566.75
2022-07-28T23:35:27.540Z,95559.69
2022-07-28T23:40:31.829Z,95573.09
2022-07-28T23:45:35.892Z,95577.97
2022-07-28T23:50:42.303Z,95574.44
2022-07-28T23:55:45.498Z,95574.44
